Accueil
METAR-TAF:

METAR-TAF

Aéroports :

Büchel, Allemagne

Base aérienne de Büchel

latitude: 50-10N, longitude: 007-04E, altitude: 478 m

Observation

Le bulletin a été fait il y a 38 minutes, à 21:20 UTC
Vent 6 kt de ouest
Température 3°C
Humidité 93%
Pression 1016 hPa
Visibilité 10 km ou plus

METAR: ETSB 222120Z AUTO 27006KT 9999 // ////// 03/02 Q1016 ///

Heure: 22:58 (21:58 UTC)

Prévision

Le bulletin a été fait il y a 51 minutes, à 21:07 UTC
Prévision valable du 22 à 21 UTC au 23 à 03 UTC
Vent 8 kt de ouest/nord-ouest
Visibilité: 9000 m
Nuages épars à une hauteur de 500 ft
Nuages fragmentés à une hauteur de 2500 ft
Temporairement
du 22 à 21 UTC au 23 à 03 UTC
Vent 5 kt de ouest/sud-ouest
Visibilité: 2110 m
Nuages fragmentés à une hauteur de 100 ft
Ciel couvert à une hauteur de 300 ft
brouillard

TAF: ETSB 222107Z 2221/2303 29008KT 9000 NSW SCT005 BKN025 TEMPO 2221/2303 25005KT 0600 FG BKN001 OVC003 CANCEL 2110 BY ETGL

Observations et prévisions météorologiques de plus de 4000 aéroports (messages METAR et TAF).

Les stations disponibles sont représentées par des disques jaunes et rouges sur la carte.

Passer la souris dessus pour voir le nom de la station.

Cliquer dessus pour voir les observations et prévisions météorologiques.

Pour changer de carte: cliquez sur les boutons verts avec une croix noire pour zoomer, sur le bouton vert avec un tiret pour effectuer un zoom arrière, ou sur les flèches vertes pour les cartes adjacentes.


METAR-TAF: